Time;durP1;ratioP1;P1;durP2;ratioP2;P2;SDS_P1;SDS_P2;PMS_P1;PMS_P2;Temp;Humidity;BMP_temperature;BMP_pressure;BME280_temperature;BME280_humidity;BME280_pressure;Samples;Min_cycle;Max_cycle;Signal;HPM_P1;HPM_P2
2023/04/06 00:01:16;;;;;;;;;;;;;;;;;;5031826;28;19925;-82
2023/04/06 00:03:44;;;;;;;;;;;;;;;;;;5032174;28;19925;-82
2023/04/06 00:06:16;;;;;;;;;;;;;;;;;;5032596;28;19932;-82
2023/04/06 00:08:49;;;;;;;;;;;;;;;;;;5032517;28;19940;-81
2023/04/06 00:11:17;;;;;;;;;;;;;;;;;;5031174;28;19944;-83
2023/04/06 00:13:44;;;;;;;;;;;;;;;;;;5031310;28;19929;-82
2023/04/06 00:16:12;;;;;;;;;;;;;;;;;;5029158;28;20408;-81
2023/04/06 00:18:40;;;;;;;;;;;;;;;;;;5033234;28;20313;-82
2023/04/06 00:21:07;;;;;;;;;;;;;;;;;;5031595;28;19925;-82
2023/04/06 00:23:35;;;;;;;;;;;;;;;;;;5029916;28;19929;-81
2023/04/06 00:26:02;;;;;;;;;;;;;;;;;;5031478;28;20354;-80
2023/04/06 00:28:30;;;;;;;;;;;;;;;;;;5028272;28;19929;-80
2023/04/06 00:30:58;;;;;;;;;;;;;;;;;;5033005;28;19929;-80
2023/04/06 00:33:25;;;;;;;;;;;;;;;;;;5047670;28;19930;-80
2023/04/06 00:35:53;;;;;;;;;;;;;;;;;;5030715;28;19926;-80
2023/04/06 00:38:25;;;;;;;;;;;;;;;;;;5031567;28;19929;-80
2023/04/06 00:40:53;;;;;;;;;;;;;;;;;;5030141;28;19932;-80
2023/04/06 00:43:21;;;;;;;;;;;;;;;;;;5032851;28;19926;-80
2023/04/06 00:45:53;;;;;;;;;;;;;;;;;;5038606;28;19933;-80
2023/04/06 00:48:26;;;;;;;;;;;;;;;;;;5024676;28;19925;-80
2023/04/06 00:51:00;;;;;;;;;;;;;;;;;;5031822;28;20302;-80
2023/04/06 00:53:27;;;;;;;;;;;;;;;;;;5030808;28;19925;-80
2023/04/06 00:55:55;;;;;;;;;;;;;;;;;;5028519;28;19933;-80
2023/04/06 00:58:22;;;;;;;;;;;;;;;;;;5031200;28;20318;-81
2023/04/06 01:00:55;;;;;;;;;;;;;;;;;;5031306;28;19933;-83
2023/04/06 01:03:23;;;;;;;;;;;;;;;;;;5038997;28;19925;-80
2023/04/06 01:05:55;;;;;;;;;;;;;;;;;;5030919;28;20414;-81
2023/04/06 01:08:34;;;;;;;;;;;;;;;;;;5046601;28;19937;-80
2023/04/06 01:11:14;;;;;;;;;;;;;;;;;;5030938;28;19925;-80
2023/04/06 01:13:41;;;;;;;;;;;;;;;;;;5028232;28;20409;-80
2023/04/06 01:16:17;;;;;;;;;;;;;;;;;;5030935;28;19932;-80
2023/04/06 01:18:59;;;;;;;;;;;;;;;;;;5031773;28;19925;-82
2023/04/06 01:21:30;;;;;;;;;;;;;;;;;;5029869;28;19929;-82
2023/04/06 01:24:21;;;;;;;;;;;;;;;;;;5039245;28;19932;-82
2023/04/06 01:27:09;;;;;;;;;;;;;;;;;;5046782;28;19932;-81
2023/04/06 01:29:56;;;;;;;;;;;;;;;;;;5040434;28;19925;-82
2023/04/06 01:32:46;;;;;;;;;;;;;;;;;;5027910;28;19936;-81
2023/04/06 01:35:30;;;;;;;;;;;;;;;;;;5029115;28;19964;-82
2023/04/06 01:38:09;;;;;;;;;;;;;;;;;;5028129;28;19933;-82
2023/04/06 01:40:37;;;;;;;;;;;;;;;;;;5029466;28;19925;-82
2023/04/06 01:43:10;;;;;;;;;;;;;;;;;;5029986;28;19940;-82
2023/04/06 01:45:56;;;;;;;;;;;;;;;;;;5030815;28;19936;-82
2023/04/06 01:48:34;;;;;;;;;;;;;;;;;;5044577;28;20277;-81
2023/04/06 01:51:09;;;;;;;;;;;;;;;;;;5034926;28;19925;-82
2023/04/06 01:53:45;;;;;;;;;;;;;;;;;;5017857;28;19929;-81
2023/04/06 01:56:20;;;;;;;;;;;;;;;;;;5028583;28;20733;-81
2023/04/06 01:59:02;;;;;;;;;;;;;;;;;;5035949;28;19932;-82
2023/04/06 02:01:36;;;;;;;;;;;;;;;;;;5045251;28;19948;-81
2023/04/06 02:04:03;;;;;;;;;;;;;;;;;;5037261;28;20436;-81
2023/04/06 02:06:36;;;;;;;;;;;;;;;;;;5029191;28;19944;-81
2023/04/06 02:09:05;;;;;;;;;;;;;;;;;;5028782;28;19995;-81
2023/04/06 02:11:33;;;;;;;;;;;;;;;;;;5030456;28;19925;-80
2023/04/06 02:14:06;;;;;;;;;;;;;;;;;;5021474;28;19933;-81
2023/04/06 02:16:38;;;;;;;;;;;;;;;;;;5029626;28;19933;-81
2023/04/06 02:19:06;;;;;;;;;;;;;;;;;;5030129;28;19928;-81
2023/04/06 02:21:34;;;;;;;;;;;;;;;;;;5029176;28;19925;-81
2023/04/06 02:24:01;;;;;;;;;;;;;;;;;;5043920;28;20413;-81
2023/04/06 02:26:34;;;;;;;;;;;;;;;;;;5045269;28;20043;-81
2023/04/06 02:29:02;;;;;;;;;;;;;;;;;;5029367;28;19932;-82
2023/04/06 02:31:35;;;;;;;;;;;;;;;;;;5030089;28;19936;-81
2023/04/06 02:34:03;;;;;;;;;;;;;;;;;;5029685;28;19929;-81
2023/04/06 02:36:31;;;;;;;;;;;;;;;;;;5029355;28;19930;-81
2023/04/06 02:39:04;;;;;;;;;;;;;;;;;;5024879;28;20366;-81
2023/04/06 02:41:31;;;;;;;;;;;;;;;;;;5021295;28;19936;-81
2023/04/06 02:44:05;;;;;;;;;;;;;;;;;;5041094;28;19925;-81
2023/04/06 02:46:38;;;;;;;;;;;;;;;;;;5027416;28;19925;-81
2023/04/06 02:49:06;;;;;;;;;;;;;;;;;;5035169;28;19933;-81
2023/04/06 02:51:34;;;;;;;;;;;;;;;;;;5044844;28;19929;-81
2023/04/06 02:54:15;;;;;;;;;;;;;;;;;;5045386;28;20381;-81
2023/04/06 02:56:42;;;;;;;;;;;;;;;;;;5028778;28;19925;-81
2023/04/06 02:59:15;;;;;;;;;;;;;;;;;;5044194;28;19948;-81
2023/04/06 03:01:49;;;;;;;;;;;;;;;;;;5029161;28;19925;-80
2023/04/06 03:04:17;;;;;;;;;;;;;;;;;;5029794;28;19929;-81
2023/04/06 03:06:45;;;;;;;;;;;;;;;;;;5029268;28;19932;-81
2023/04/06 03:09:21;;;;;;;;;;;;;;;;;;5019685;28;19929;-81
2023/04/06 03:11:49;;;;;;;;;;;;;;;;;;5044488;28;20289;-81
2023/04/06 03:14:22;;;;;;;;;;;;;;;;;;5026476;28;20382;-80
2023/04/06 03:16:50;;;;;;;;;;;;;;;;;;5039728;28;19932;-80
2023/04/06 03:19:21;;;;;;;;;;;;;;;;;;5032122;28;19932;-81
2023/04/06 03:21:49;;;;;;;;;;;;;;;;;;5049762;28;19932;-81
2023/04/06 03:24:17;;;;;;;;;;;;;;;;;;5031653;28;20356;-80
2023/04/06 03:26:45;;;;;;;;;;;;;;;;;;5033836;28;20288;-80
2023/04/06 03:29:18;;;;;;;;;;;;;;;;;;5031369;28;19929;-81
2023/04/06 03:31:45;;;;;;;;;;;;;;;;;;5039295;28;19932;-80
2023/04/06 03:34:34;;;;;;;;;;;;;;;;;;5033324;28;20305;-81
2023/04/06 03:37:07;;;;;;;;;;;;;;;;;;5048540;28;19936;-80
2023/04/06 03:39:46;;;;;;;;;;;;;;;;;;5032854;28;19933;-80
2023/04/06 03:42:19;;;;;;;;;;;;;;;;;;5033136;28;19925;-80
2023/04/06 03:44:56;;;;;;;;;;;;;;;;;;5030572;28;19925;-80
2023/04/06 03:47:29;;;;;;;;;;;;;;;;;;5029511;28;20286;-81
2023/04/06 03:50:05;;;;;;;;;;;;;;;;;;5031341;28;19925;-81
2023/04/06 03:52:34;;;;;;;;;;;;;;;;;;5030559;28;19947;-81
2023/04/06 03:55:02;;;;;;;;;;;;;;;;;;5034470;28;19929;-81
2023/04/06 03:57:29;;;;;;;;;;;;;;;;;;5033097;28;19940;-80
2023/04/06 03:59:58;;;;;;;;;;;;;;;;;;5033036;28;20273;-80
2023/04/06 04:02:39;;;;;;;;;;;;;;;;;;5039764;28;20352;-81
2023/04/06 04:05:11;;;;;;;;;;;;;;;;;;5033214;28;19925;-81
2023/04/06 04:07:39;;;;;;;;;;;;;;;;;;5030734;28;19925;-81
2023/04/06 04:10:08;;;;;;;;;;;;;;;;;;5032344;28;19929;-81
2023/04/06 04:12:36;;;;;;;;;;;;;;;;;;5030421;28;19925;-80
2023/04/06 04:15:03;;;;;;;;;;;;;;;;;;5033127;28;19937;-81
2023/04/06 04:17:36;;;;;;;;;;;;;;;;;;5031692;28;19928;-81
2023/04/06 04:20:04;;;;;;;;;;;;;;;;;;5031566;28;20262;-81
2023/04/06 04:22:32;;;;;;;;;;;;;;;;;;5028638;28;19929;-81
2023/04/06 04:25:00;;;;;;;;;;;;;;;;;;5033091;28;19929;-81
2023/04/06 04:27:35;;;;;;;;;;;;;;;;;;5047464;28;19926;-81
2023/04/06 04:30:07;;;;;;;;;;;;;;;;;;5027877;28;19937;-80
2023/04/06 04:32:35;;;;;;;;;;;;;;;;;;5030864;28;19925;-81
2023/04/06 04:35:05;;;;;;;;;;;;;;;;;;5039045;28;19943;-80
2023/04/06 04:37:38;;;;;;;;;;;;;;;;;;5032013;28;20367;-80
2023/04/06 04:40:06;;;;;;;;;;;;;;;;;;5031876;28;19936;-80
2023/04/06 04:42:43;;;;;;;;;;;;;;;;;;5030365;28;19940;-81
2023/04/06 04:45:16;;;;;;;;;;;;;;;;;;5031286;28;19933;-80
2023/04/06 04:47:44;;;;;;;;;;;;;;;;;;5031513;28;19925;-80
2023/04/06 04:50:13;;;;;;;;;;;;;;;;;;5031646;28;19929;-81
2023/04/06 04:52:48;;;;;;;;;;;;;;;;;;5030357;28;19925;-80
2023/04/06 04:55:24;;;;;;;;;;;;;;;;;;5031030;28;19925;-80
2023/04/06 04:57:54;;;;;;;;;;;;;;;;;;5027733;28;19929;-80
2023/04/06 05:00:30;;;;;;;;;;;;;;;;;;5029665;28;19940;-80
2023/04/06 05:03:02;;;;;;;;;;;;;;;;;;5025141;28;19936;-81
2023/04/06 05:05:33;;;;;;;;;;;;;;;;;;5024734;28;19933;-80
2023/04/06 05:08:01;;;;;;;;;;;;;;;;;;5030042;28;19929;-80
2023/04/06 05:10:45;;;;;;;;;;;;;;;;;;5028008;28;19932;-81
2023/04/06 05:13:12;;;;;;;;;;;;;;;;;;5027539;28;20325;-80
2023/04/06 05:15:40;;;;;;;;;;;;;;;;;;5030230;28;19936;-81
2023/04/06 05:18:28;;;;;;;;;;;;;;;;;;5034872;28;19925;-81
2023/04/06 05:20:57;;;;;;;;;;;;;;;;;;5029155;28;20293;-81
2023/04/06 05:23:32;;;;;;;;;;;;;;;;;;5037171;28;19929;-81
2023/04/06 05:26:02;;;;;;;;;;;;;;;;;;5030284;28;19925;-80
2023/04/06 05:28:29;;;;;;;;;;;;;;;;;;5030550;28;19925;-81
2023/04/06 05:31:02;;;;;;;;;;;;;;;;;;5030182;28;19936;-81
2023/04/06 05:33:37;;;;;;;;;;;;;;;;;;5036728;28;19925;-80
2023/04/06 05:36:11;;;;;;;;;;;;;;;;;;5034088;28;19936;-81
2023/04/06 05:38:42;;;;;;;;;;;;;;;;;;5030755;28;20056;-81
2023/04/06 05:41:29;;;;;;;;;;;;;;;;;;5021734;28;19929;-81
2023/04/06 05:44:02;;;;;;;;;;;;;;;;;;5030715;28;19925;-81
2023/04/06 05:46:30;;;;;;;;;;;;;;;;;;5027796;28;19926;-81
2023/04/06 05:49:03;;;;;;;;;;;;;;;;;;5029630;28;20384;-81
2023/04/06 05:51:33;;;;;;;;;;;;;;;;;;5036732;28;19953;-81
2023/04/06 05:54:05;;;;;;;;;;;;;;;;;;5029170;28;19925;-81
2023/04/06 05:56:34;;;;;;;;;;;;;;;;;;5030450;28;19932;-81
2023/04/06 05:59:02;;;;;;;;;;;;;;;;;;5035831;28;19929;-81
2023/04/06 06:01:30;;;;;;;;;;;;;;;;;;5025027;28;19938;-83
2023/04/06 06:03:58;;;;;;;;;;;;;;;;;;5026974;28;20309;-82
2023/04/06 06:06:28;;;;;;;;;;;;;;;;;;5025541;28;19929;-83
2023/04/06 06:09:22;;;;;;;;;;;;;;;;;;5027242;28;19925;-83
2023/04/06 06:12:01;;;;;;;;;;;;;;;;;;5027886;28;19940;-83
2023/04/06 06:14:29;;;;;;;;;;;;;;;;;;5027713;28;20008;-83
2023/04/06 06:16:57;;;;;;;;;;;;;;;;;;5030053;28;19929;-82
2023/04/06 06:19:25;;;;;;;;;;;;;;;;;;5025608;28;19932;-82
2023/04/06 06:22:02;;;;;;;;;;;;;;;;;;5026255;28;19929;-82
2023/04/06 06:24:31;;;;;;;;;;;;;;;;;;4987575;28;22131;-82
2023/04/06 06:26:59;;;;;;;;;;;;;;;;;;5000658;28;19933;-83
2023/04/06 06:29:29;;;;;;;;;;;;;;;;;;4999958;28;19933;-82
2023/04/06 06:31:56;;;;;;;;;;;;;;;;;;4999918;28;19944;-84
2023/04/06 06:34:25;;;;;;;;;;;;;;;;;;5003900;28;19929;-83
2023/04/06 06:36:55;;;;;;;;;;;;;;;;;;5012886;28;19933;-84
2023/04/06 06:39:22;;;;;;;;;;;;;;;;;;5011901;28;19955;-84
2023/04/06 06:41:51;;;;;;;;;;;;;;;;;;5006665;28;19933;-83
2023/04/06 06:44:22;;;;;;;;;;;;;;;;;;5018740;28;19940;-81
2023/04/06 06:46:50;;;;;;;;;;;;;;;;;;5004722;28;20745;-83
2023/04/06 06:49:18;;;;;;;;;;;;;;;;;;5009654;28;19933;-85
2023/04/06 06:51:51;;;;;;;;;;;;;;;;;;5033408;28;19933;-83
2023/04/06 06:54:18;;;;;;;;;;;;;;;;;;5007882;28;20446;-82
2023/04/06 06:56:46;;;;;;;;;;;;;;;;;;5004545;28;19933;-82
2023/04/06 06:59:13;;;;;;;;;;;;;;;;;;5008004;28;20310;-84
2023/04/06 07:01:41;;;;;;;;;;;;;;;;;;5001547;28;19933;-82
2023/04/06 07:04:09;;;;;;;;;;;;;;;;;;5012665;28;19940;-82
2023/04/06 07:06:37;;;;;;;;;;;;;;;;;;5003121;28;19933;-82
2023/04/06 07:09:09;;;;;;;;;;;;;;;;;;5005428;28;19934;-82
2023/04/06 07:11:42;;;;;;;;;;;;;;;;;;5005467;28;19945;-81
2023/04/06 07:14:15;;;;;;;;;;;;;;;;;;5025712;28;19953;-83
2023/04/06 07:16:49;;;;;;;;;;;;;;;;;;5006719;28;19933;-81
2023/04/06 07:19:17;;;;;;;;;;;;;;;;;;5001133;28;20321;-82
2023/04/06 07:21:45;;;;;;;;;;;;;;;;;;4999315;28;19933;-82
2023/04/06 07:24:12;;;;;;;;;;;;;;;;;;5000072;28;20046;-83
2023/04/06 07:26:45;;;;;;;;;;;;;;;;;;5018509;28;19933;-82
2023/04/06 07:29:13;;;;;;;;;;;;;;;;;;4998790;28;20305;-83
2023/04/06 07:31:46;;;;;;;;;;;;;;;;;;5009061;28;19925;-82
2023/04/06 07:34:14;;;;;;;;;;;;;;;;;;4998294;28;19937;-81
2023/04/06 07:36:41;;;;;;;;;;;;;;;;;;5000632;28;20360;-83
2023/04/06 07:39:09;;;;;;;;;;;;;;;;;;5025595;28;19940;-80
2023/04/06 07:41:42;;;;;;;;;;;;;;;;;;4999155;28;19933;-82
2023/04/06 07:44:09;;;;;;;;;;;;;;;;;;5020840;28;19933;-82
2023/04/06 07:46:38;;;;;;;;;;;;;;;;;;5013028;28;19933;-81
2023/04/06 07:49:10;;;;;;;;;;;;;;;;;;5009053;28;19940;-81
2023/04/06 07:51:38;;;;;;;;;;;;;;;;;;5014450;28;19936;-81
2023/04/06 07:54:06;;;;;;;;;;;;;;;;;;5015683;28;19940;-80
2023/04/06 07:56:33;;;;;;;;;;;;;;;;;;4995655;28;19953;-80
2023/04/06 07:59:06;;;;;;;;;;;;;;;;;;4997649;28;21444;-81
2023/04/06 08:01:38;;;;;;;;;;;;;;;;;;4993894;28;19960;-81
2023/04/06 08:04:06;;;;;;;;;;;;;;;;;;5014436;28;19933;-81
2023/04/06 08:06:34;;;;;;;;;;;;;;;;;;5001042;28;19948;-81
2023/04/06 08:09:01;;;;;;;;;;;;;;;;;;5003568;28;20428;-82
2023/04/06 08:11:29;;;;;;;;;;;;;;;;;;5007607;28;19928;-81
2023/04/06 08:13:56;;;;;;;;;;;;;;;;;;5001521;28;19933;-82
2023/04/06 08:16:29;;;;;;;;;;;;;;;;;;5011832;28;19933;-84
2023/04/06 08:19:02;;;;;;;;;;;;;;;;;;5022929;28;19933;-82
2023/04/06 08:21:34;;;;;;;;;;;;;;;;;;5009834;28;20282;-83
2023/04/06 08:24:02;;;;;;;;;;;;;;;;;;5004242;28;19933;-83
2023/04/06 08:26:30;;;;;;;;;;;;;;;;;;4993859;28;19933;-82
2023/04/06 08:29:03;;;;;;;;;;;;;;;;;;5026782;28;19940;-83
2023/04/06 08:31:33;;;;;;;;;;;;;;;;;;5005058;28;19933;-83
2023/04/06 08:34:01;;;;;;;;;;;;;;;;;;5010469;28;19933;-82
2023/04/06 08:36:34;;;;;;;;;;;;;;;;;;5022229;28;20461;-82
2023/04/06 08:39:01;;;;;;;;;;;;;;;;;;5006053;28;19933;-82
2023/04/06 08:41:34;;;;;;;;;;;;;;;;;;5003172;28;19937;-82
2023/04/06 08:44:01;;;;;;;;;;;;;;;;;;5010802;28;20277;-82
2023/04/06 08:46:30;;;;;;;;;;;;;;;;;;5021449;28;21263;-82
2023/04/06 08:48:57;;;;;;;;;;;;;;;;;;5011348;28;19925;-83
2023/04/06 08:51:30;;;;;;;;;;;;;;;;;;5007854;28;19940;-81
2023/04/06 08:54:02;;;;;;;;;;;;;;;;;;5006107;28;19944;-82
2023/04/06 08:56:30;;;;;;;;;;;;;;;;;;5005262;28;19944;-84
2023/04/06 08:58:57;;;;;;;;;;;;;;;;;;5024813;28;19940;-83
2023/04/06 09:01:30;;;;;;;;;;;;;;;;;;5009074;28;19933;-82
2023/04/06 09:04:04;;;;;;;;;;;;;;;;;;5002413;28;19932;-83
2023/04/06 09:06:32;;;;;;;;;;;;;;;;;;5005042;28;20293;-82
2023/04/06 09:08:59;;;;;;;;;;;;;;;;;;5028526;28;19940;-82
2023/04/06 09:11:32;;;;;;;;;;;;;;;;;;5008381;28;19933;-83
2023/04/06 09:14:00;;;;;;;;;;;;;;;;;;5007550;28;19940;-83
2023/04/06 09:16:32;;;;;;;;;;;;;;;;;;5021031;28;19937;-81
2023/04/06 09:19:00;;;;;;;;;;;;;;;;;;5021376;28;19944;-82
2023/04/06 09:21:27;;;;;;;;;;;;;;;;;;5003894;28;19940;-82
2023/04/06 09:23:55;;;;;;;;;;;;;;;;;;5009669;28;19940;-83
2023/04/06 09:26:23;;;;;;;;;;;;;;;;;;5026925;28;19933;-82
2023/04/06 09:28:51;;;;;;;;;;;;;;;;;;5009810;28;19940;-83
2023/04/06 09:31:18;;;;;;;;;;;;;;;;;;5001763;28;21505;-82
2023/04/06 09:33:46;;;;;;;;;;;;;;;;;;5020157;28;20365;-82
2023/04/06 09:36:18;;;;;;;;;;;;;;;;;;5011049;28;19944;-81
2023/04/06 09:38:51;;;;;;;;;;;;;;;;;;5010028;28;19929;-83
2023/04/06 09:41:19;;;;;;;;;;;;;;;;;;5003117;28;19929;-82
2023/04/06 09:43:51;;;;;;;;;;;;;;;;;;5009211;28;19933;-83
2023/04/06 09:46:19;;;;;;;;;;;;;;;;;;5020014;28;19925;-82
2023/04/06 09:48:46;;;;;;;;;;;;;;;;;;5027289;28;20381;-81
2023/04/06 09:51:14;;;;;;;;;;;;;;;;;;5004409;28;19948;-83
2023/04/06 09:53:42;;;;;;;;;;;;;;;;;;5023360;28;19932;-83
2023/04/06 09:56:14;;;;;;;;;;;;;;;;;;5004118;28;20529;-81
2023/04/06 09:58:42;;;;;;;;;;;;;;;;;;5014385;28;19929;-82
2023/04/06 10:01:10;;;;;;;;;;;;;;;;;;5002613;28;20905;-82
2023/04/06 10:03:38;;;;;;;;;;;;;;;;;;5005307;28;19929;-82
2023/04/06 10:06:11;;;;;;;;;;;;;;;;;;5019444;28;19933;-81
2023/04/06 10:08:40;;;;;;;;;;;;;;;;;;5023239;28;19933;-83
2023/04/06 10:11:07;;;;;;;;;;;;;;;;;;5005085;28;19940;-82
2023/04/06 10:13:35;;;;;;;;;;;;;;;;;;4999697;28;19944;-82
2023/04/06 10:16:07;;;;;;;;;;;;;;;;;;5005384;28;20602;-83
2023/04/06 10:18:35;;;;;;;;;;;;;;;;;;5005659;28;19933;-83
2023/04/06 10:21:03;;;;;;;;;;;;;;;;;;5000121;28;19940;-82
2023/04/06 10:23:30;;;;;;;;;;;;;;;;;;5007837;28;20761;-83
2023/04/06 10:25:58;;;;;;;;;;;;;;;;;;5022920;28;19940;-82
2023/04/06 10:28:25;;;;;;;;;;;;;;;;;;5006568;28;19933;-82
2023/04/06 10:30:53;;;;;;;;;;;;;;;;;;5005816;28;19949;-85
2023/04/06 10:33:20;;;;;;;;;;;;;;;;;;5023692;28;19940;-83
2023/04/06 10:35:53;;;;;;;;;;;;;;;;;;5006204;28;19933;-82
2023/04/06 10:38:22;;;;;;;;;;;;;;;;;;5010447;28;19929;-82
2023/04/06 10:40:50;;;;;;;;;;;;;;;;;;5005167;28;19980;-82
2023/04/06 10:43:22;;;;;;;;;;;;;;;;;;5024559;28;19932;-83
2023/04/06 10:45:50;;;;;;;;;;;;;;;;;;5016674;28;20798;-82
2023/04/06 10:48:23;;;;;;;;;;;;;;;;;;5020786;28;19940;-82
2023/04/06 10:50:56;;;;;;;;;;;;;;;;;;5000701;28;19933;-83
2023/04/06 10:53:23;;;;;;;;;;;;;;;;;;5000801;28;20569;-83
2023/04/06 10:55:51;;;;;;;;;;;;;;;;;;5007519;28;19944;-82
2023/04/06 10:58:24;;;;;;;;;;;;;;;;;;5005984;28;20735;-82
2023/04/06 11:00:51;;;;;;;;;;;;;;;;;;5015471;28;19933;-82
2023/04/06 11:03:19;;;;;;;;;;;;;;;;;;5010659;28;19933;-82
2023/04/06 11:05:52;;;;;;;;;;;;;;;;;;5002591;28;20470;-80
2023/04/06 11:08:19;;;;;;;;;;;;;;;;;;5003344;28;19933;-82
2023/04/06 11:10:52;;;;;;;;;;;;;;;;;;5007063;28;20473;-83
2023/04/06 11:13:25;;;;;;;;;;;;;;;;;;5001684;28;19940;-83
2023/04/06 11:15:52;;;;;;;;;;;;;;;;;;5005596;28;19933;-82
2023/04/06 11:18:20;;;;;;;;;;;;;;;;;;4998984;28;19929;-82
2023/04/06 11:20:47;;;;;;;;;;;;;;;;;;4998828;28;19933;-83
2023/04/06 11:23:15;;;;;;;;;;;;;;;;;;4998635;28;19925;-84
2023/04/06 11:25:42;;;;;;;;;;;;;;;;;;4977019;28;21589;-82
2023/04/06 11:28:10;;;;;;;;;;;;;;;;;;5005227;28;20297;-83
2023/04/06 11:30:38;;;;;;;;;;;;;;;;;;5004181;28;20534;-83
2023/04/06 11:33:05;;;;;;;;;;;;;;;;;;5000418;28;19940;-84
2023/04/06 11:35:33;;;;;;;;;;;;;;;;;;5002880;28;20361;-84
2023/04/06 11:38:01;;;;;;;;;;;;;;;;;;5002628;28;19933;-83
2023/04/06 11:40:30;;;;;;;;;;;;;;;;;;5000296;28;19941;-83
2023/04/06 11:43:02;;;;;;;;;;;;;;;;;;5007290;28;19933;-83
2023/04/06 11:45:35;;;;;;;;;;;;;;;;;;5006806;28;19933;-84
2023/04/06 11:48:04;;;;;;;;;;;;;;;;;;5020386;28;19933;-85
2023/04/06 11:50:31;;;;;;;;;;;;;;;;;;5008884;28;19929;-83
2023/04/06 11:52:59;;;;;;;;;;;;;;;;;;5003167;28;19933;-82
2023/04/06 11:55:32;;;;;;;;;;;;;;;;;;5003553;28;19940;-83
2023/04/06 11:58:00;;;;;;;;;;;;;;;;;;5007121;28;19933;-82
2023/04/06 12:00:34;;;;;;;;;;;;;;;;;;5001261;28;19940;-83
2023/04/06 12:03:02;;;;;;;;;;;;;;;;;;5009046;28;19940;-82
2023/04/06 12:05:34;;;;;;;;;;;;;;;;;;5002762;28;19933;-83
2023/04/06 12:08:02;;;;;;;;;;;;;;;;;;5009826;28;19940;-82
2023/04/06 12:10:30;;;;;;;;;;;;;;;;;;5004557;28;20542;-83
2023/04/06 12:12:57;;;;;;;;;;;;;;;;;;5024976;28;19933;-83
2023/04/06 12:15:25;;;;;;;;;;;;;;;;;;5007251;28;20663;-82
2023/04/06 12:17:52;;;;;;;;;;;;;;;;;;5030553;28;19933;-84
2023/04/06 12:20:20;;;;;;;;;;;;;;;;;;5020127;28;19933;-84
2023/04/06 12:22:47;;;;;;;;;;;;;;;;;;5006445;28;19972;-82
2023/04/06 12:25:15;;;;;;;;;;;;;;;;;;4984666;28;20835;-82
2023/04/06 12:27:48;;;;;;;;;;;;;;;;;;5008368;28;19933;-83
2023/04/06 12:30:15;;;;;;;;;;;;;;;;;;5027112;28;19925;-82
2023/04/06 12:32:43;;;;;;;;;;;;;;;;;;5028505;28;19929;-81
2023/04/06 12:35:11;;;;;;;;;;;;;;;;;;5029572;28;19925;-82
2023/04/06 12:37:40;;;;;;;;;;;;;;;;;;5032052;28;19925;-82
2023/04/06 12:40:14;;;;;;;;;;;;;;;;;;5031710;28;20385;-83
2023/04/06 12:42:47;;;;;;;;;;;;;;;;;;5029334;28;19936;-82
2023/04/06 12:45:14;;;;;;;;;;;;;;;;;;5031657;28;19929;-82
2023/04/06 12:47:42;;;;;;;;;;;;;;;;;;5028817;28;19930;-83
2023/04/06 12:50:10;;;;;;;;;;;;;;;;;;5031440;28;20373;-82
2023/04/06 12:52:42;;;;;;;;;;;;;;;;;;5033163;28;19936;-84
2023/04/06 12:55:15;;;;;;;;;;;;;;;;;;5047068;28;20322;-83
2023/04/06 12:57:42;;;;;;;;;;;;;;;;;;5030831;28;19932;-83
2023/04/06 13:00:10;;;;;;;;;;;;;;;;;;5026883;28;19929;-83
2023/04/06 13:02:38;;;;;;;;;;;;;;;;;;5029698;28;19925;-82
2023/04/06 13:05:05;;;;;;;;;;;;;;;;;;5029817;28;19932;-82
2023/04/06 13:07:33;;;;;;;;;;;;;;;;;;5032175;28;19928;-83
2023/04/06 13:10:01;;;;;;;;;;;;;;;;;;5031643;28;19929;-82
2023/04/06 13:12:28;;;;;;;;;;;;;;;;;;5028704;28;19930;-82
2023/04/06 13:14:56;;;;;;;;;;;;;;;;;;5031813;28;20036;-81
2023/04/06 13:17:24;;;;;;;;;;;;;;;;;;5027740;28;19925;-82
2023/04/06 13:19:51;;;;;;;;;;;;;;;;;;5029544;28;19929;-82
2023/04/06 13:22:19;;;;;;;;;;;;;;;;;;5032305;28;19929;-82
2023/04/06 13:24:47;;;;;;;;;;;;;;;;;;5030871;28;19940;-81
2023/04/06 13:27:14;;;;;;;;;;;;;;;;;;5032882;28;20294;-81
2023/04/06 13:29:42;;;;;;;;;;;;;;;;;;5032476;28;19936;-82
2023/04/06 13:32:10;;;;;;;;;;;;;;;;;;5029253;28;20385;-82
2023/04/06 13:34:44;;;;;;;;;;;;;;;;;;5031497;28;19937;-82
2023/04/06 13:37:17;;;;;;;;;;;;;;;;;;5027842;28;19936;-82
2023/04/06 13:39:44;;;;;;;;;;;;;;;;;;5028749;28;20297;-81
2023/04/06 13:42:12;;;;;;;;;;;;;;;;;;5031018;28;19936;-81
2023/04/06 13:44:40;;;;;;;;;;;;;;;;;;5028799;28;19925;-81
2023/04/06 13:47:12;;;;;;;;;;;;;;;;;;5032526;28;20278;-82
2023/04/06 13:49:40;;;;;;;;;;;;;;;;;;5031549;28;19929;-82
2023/04/06 13:52:13;;;;;;;;;;;;;;;;;;5030610;28;19936;-82
2023/04/06 13:54:40;;;;;;;;;;;;;;;;;;5032322;28;19925;-82
2023/04/06 13:57:09;;;;;;;;;;;;;;;;;;5027172;28;21518;-83
2023/04/06 13:59:37;;;;;;;;;;;;;;;;;;5029691;28;19929;-82
2023/04/06 14:02:05;;;;;;;;;;;;;;;;;;5024022;28;20497;-81
2023/04/06 14:04:33;;;;;;;;;;;;;;;;;;5038214;28;19929;-81
2023/04/06 14:07:07;;;;;;;;;;;;;;;;;;5029963;28;19933;-82
2023/04/06 14:09:39;;;;;;;;;;;;;;;;;;5025267;28;19933;-81
2023/04/06 14:12:07;;;;;;;;;;;;;;;;;;5025036;28;19932;-81
2023/04/06 14:14:39;;;;;;;;;;;;;;;;;;5031379;28;19952;-81
2023/04/06 14:17:07;;;;;;;;;;;;;;;;;;5029097;28;20263;-81
2023/04/06 14:19:35;;;;;;;;;;;;;;;;;;5021661;28;19944;-82
2023/04/06 14:22:08;;;;;;;;;;;;;;;;;;5043971;28;19960;-82
2023/04/06 14:24:41;;;;;;;;;;;;;;;;;;5026237;28;19929;-80
2023/04/06 14:27:09;;;;;;;;;;;;;;;;;;5026135;28;20558;-83
2023/04/06 14:29:41;;;;;;;;;;;;;;;;;;5029816;28;19940;-84
2023/04/06 14:32:09;;;;;;;;;;;;;;;;;;5023071;28;19930;-83
2023/04/06 14:34:41;;;;;;;;;;;;;;;;;;5026889;28;19936;-83
2023/04/06 14:37:09;;;;;;;;;;;;;;;;;;5028376;28;20510;-82
2023/04/06 14:39:41;;;;;;;;;;;;;;;;;;5028783;28;20282;-86
2023/04/06 14:42:09;;;;;;;;;;;;;;;;;;5029221;28;19925;-84
2023/04/06 14:44:38;;;;;;;;;;;;;;;;;;5036395;28;19930;-84
2023/04/06 14:47:05;;;;;;;;;;;;;;;;;;5028619;28;21179;-83
2023/04/06 14:49:33;;;;;;;;;;;;;;;;;;5029924;28;19936;-84
2023/04/06 14:52:01;;;;;;;;;;;;;;;;;;5027325;28;19936;-83
2023/04/06 14:54:33;;;;;;;;;;;;;;;;;;5023272;28;20412;-82
2023/04/06 14:57:01;;;;;;;;;;;;;;;;;;5024555;28;19928;-81
2023/04/06 14:59:29;;;;;;;;;;;;;;;;;;5027734;28;20282;-83
2023/04/06 15:01:56;;;;;;;;;;;;;;;;;;5026363;28;19925;-85
2023/04/06 15:04:29;;;;;;;;;;;;;;;;;;5029761;28;20362;-85
2023/04/06 15:07:01;;;;;;;;;;;;;;;;;;5024469;28;19933;-87
2023/04/06 15:09:29;;;;;;;;;;;;;;;;;;5019757;28;19929;-88
2023/04/06 15:11:56;;;;;;;;;;;;;;;;;;5033147;28;19932;-84
2023/04/06 15:14:29;;;;;;;;;;;;;;;;;;5028917;28;19925;-89
2023/04/06 15:16:57;;;;;;;;;;;;;;;;;;5033580;28;20413;-88
2023/04/06 15:19:29;;;;;;;;;;;;;;;;;;5030745;28;20784;-85
2023/04/06 15:21:57;;;;;;;;;;;;;;;;;;5045705;28;19940;-86
2023/04/06 15:24:24;;;;;;;;;;;;;;;;;;5032697;28;19925;-89
2023/04/06 15:26:57;;;;;;;;;;;;;;;;;;5032825;28;19926;-92
2023/04/06 15:29:25;;;;;;;;;;;;;;;;;;5047472;28;19925;-83
2023/04/06 15:31:52;;;;;;;;;;;;;;;;;;5034029;28;19948;-84
2023/04/06 15:34:20;;;;;;;;;;;;;;;;;;5040992;28;19929;-83
2023/04/06 15:36:47;;;;;;;;;;;;;;;;;;5027160;28;19937;-85
2023/04/06 15:39:15;;;;;;;;;;;;;;;;;;4973638;28;19940;-83
2023/04/06 15:41:43;;;;;;;;;;;;;;;;;;5023650;28;19948;-84
2023/04/06 15:44:10;;;;;;;;;;;;;;;;;;5012462;28;21006;-85
2023/04/06 15:46:38;;;;;;;;;;;;;;;;;;5006151;28;19933;-81
2023/04/06 15:49:05;;;;;;;;;;;;;;;;;;5019514;28;19940;-82
2023/04/06 15:51:38;;;;;;;;;;;;;;;;;;5001501;28;19933;-81
2023/04/06 15:54:06;;;;;;;;;;;;;;;;;;5004624;28;19933;-81
2023/04/06 15:56:34;;;;;;;;;;;;;;;;;;5001647;28;19940;-81
2023/04/06 15:59:06;;;;;;;;;;;;;;;;;;5005601;28;19933;-81
2023/04/06 16:01:34;;;;;;;;;;;;;;;;;;5013618;28;19933;-81
2023/04/06 16:04:01;;;;;;;;;;;;;;;;;;5002541;28;19940;-82
2023/04/06 16:06:31;;;;;;;;;;;;;;;;;;4996206;28;19945;-82
2023/04/06 16:09:03;;;;;;;;;;;;;;;;;;5002419;28;19940;-82
2023/04/06 16:11:36;;;;;;;;;;;;;;;;;;5009684;28;19948;-82
2023/04/06 16:14:04;;;;;;;;;;;;;;;;;;5002930;28;19929;-81
2023/04/06 16:16:31;;;;;;;;;;;;;;;;;;5004628;28;19933;-84
2023/04/06 16:18:59;;;;;;;;;;;;;;;;;;5004581;28;19933;-86
2023/04/06 16:21:32;;;;;;;;;;;;;;;;;;5009394;28;19944;-83
2023/04/06 16:23:59;;;;;;;;;;;;;;;;;;5023138;28;21233;-83
2023/04/06 16:26:27;;;;;;;;;;;;;;;;;;5032352;28;19945;-83
2023/04/06 16:28:56;;;;;;;;;;;;;;;;;;5008320;28;19933;-83
2023/04/06 16:31:23;;;;;;;;;;;;;;;;;;5024690;28;19933;-83
2023/04/06 16:33:51;;;;;;;;;;;;;;;;;;5006949;28;20408;-82
2023/04/06 16:36:23;;;;;;;;;;;;;;;;;;5002597;28;20730;-85
2023/04/06 16:38:51;;;;;;;;;;;;;;;;;;5022982;28;19944;-84
2023/04/06 16:41:18;;;;;;;;;;;;;;;;;;5006846;28;19940;-84
2023/04/06 16:43:46;;;;;;;;;;;;;;;;;;5000967;28;20042;-83
2023/04/06 16:46:13;;;;;;;;;;;;;;;;;;5007939;28;21214;-84
2023/04/06 16:48:41;;;;;;;;;;;;;;;;;;5010758;28;19940;-84
2023/04/06 16:51:14;;;;;;;;;;;;;;;;;;5026324;28;19944;-83
2023/04/06 16:53:42;;;;;;;;;;;;;;;;;;5022219;28;20807;-84
2023/04/06 16:56:10;;;;;;;;;;;;;;;;;;5011792;28;19933;-84
2023/04/06 16:58:38;;;;;;;;;;;;;;;;;;5013187;28;19940;-84
2023/04/06 17:01:10;;;;;;;;;;;;;;;;;;5007160;28;19933;-82
2023/04/06 17:03:38;;;;;;;;;;;;;;;;;;5024731;28;19988;-83
2023/04/06 17:06:05;;;;;;;;;;;;;;;;;;5005309;28;19933;-84